• Join FlightAware (Why Join?)
  • Login
  • US Flag 
01:35PM EDT


 

Airport Tracker/Info


-or-


 

Live Flight TrackerFlight Track Log ✈ CSZ9901 ✈ 04-Jul-2013 ✈ ZGSZ / SZX - ZJSY / SYX

Flight Track Log - Related Links

Times and Time Zones

All times are in EDT time to prevent confusion due to time zone crossing. See the CSZ9901 flight status page for this flight to view local times or setup timezone preferences in your user account.

Time Position Orientation Groundspeed Altitude Reporting Facility
EDT Latitude Longitude Course Direction KTS MPH feet Rate Location/Type
07:14PM 22.1447 113.2913 224° Southwest  Level Estimated
07:15PM 22.0621 113.2048 224° Southwest  Level Estimated
07:16PM 21.9794 113.1184 224° Southwest  Level Estimated
07:17PM 21.8967 113.0321 224° Southwest  Level Estimated
07:18PM 21.8139 112.9459 224° Southwest  Level Estimated
07:19PM 21.7311 112.8598 224° Southwest  Level Estimated
07:20PM 21.6483 112.7738 224° Southwest  Level Estimated
07:21PM 21.5654 112.6879 224° Southwest  Level Estimated
07:22PM 21.4824 112.6021 224° Southwest  Level Estimated
07:23PM 21.3994 112.5164 224° Southwest  Level Estimated
07:24PM 21.3164 112.4308 224° Southwest  Level Estimated
07:25PM 21.2333 112.3453 224° Southwest  Level Estimated
07:26PM 21.1502 112.2599 224° Southwest  Level Estimated
07:27PM 21.0671 112.1746 224° Southwest  Level Estimated
07:28PM 20.9839 112.0893 224° Southwest  Level Estimated
07:29PM 20.9006 112.0042 224° Southwest  Level Estimated
07:30PM 20.8174 111.9192 224° Southwest  Level Estimated
07:31PM 20.7340 111.8343 224° Southwest  Level Estimated
07:32PM 20.6507 111.7494 224° Southwest  Level Estimated
07:33PM 20.5673 111.6647 224° Southwest  Level Estimated
07:34PM 20.4838 111.5800 224° Southwest  Level Estimated
07:35PM 20.4003 111.4954 224° Southwest  Level Estimated
07:36PM 20.3168 111.4110 223° Southwest  Level Estimated
07:37PM 20.2332 111.3266 223° Southwest  Level Estimated
07:38PM 20.1496 111.2423 223° Southwest  Level Estimated
07:39PM 20.0660 111.1581 223° Southwest  Level Estimated
07:40PM 19.9823 111.0740 223° Southwest  Level Estimated
07:41PM 19.8986 110.9900 223° Southwest  Level Estimated
07:42PM 19.8148 110.9060 223° Southwest  Level Estimated
07:43PM 19.7310 110.8222 223° Southwest  Level Estimated
07:44PM 19.6471 110.7384 223° Southwest  Level Estimated
07:45PM 19.5632 110.6547 223° Southwest  Level Estimated
07:46PM 19.4793 110.5712 223° Southwest  Level Estimated
07:47PM 19.3953 110.4877 223° Southwest  Level Estimated
07:48PM 19.3113 110.4043 223° Southwest  Level Estimated
07:49PM 19.2273 110.3209 223° Southwest  Level Estimated
07:50PM 19.1432 110.2377 223° Southwest  Level Estimated
07:51PM 19.0591 110.1545 223° Southwest  Level Estimated
07:52PM 18.9750 110.0715 223° Southwest  Level Estimated
07:53PM 18.8908 109.9885 223° Southwest  Level Estimated
07:54PM 18.8066 109.9056 223° Southwest  Level Estimated
07:55PM 18.7223 109.8228 223° Southwest  Level Estimated
07:56PM 18.6380 109.7400 223° Southwest  Level Estimated
07:57PM 18.5537 109.6574 223° Southwest  Level Estimated
07:58PM 18.4693 109.5748 223° Southwest  Level Estimated
07:59PM 18.3849 109.4923 223° Southwest  Level Estimated
08:00PM 18.3029 109.4123 223° Southwest  Level Estimated
08:01PM 18.3029 109.4123 148° Southeast  Level Estimated
08:02PM 18.3029 109.4123 148° Southeast  Level Estimated
08:03PM 18.3029 109.4123 148° Southeast  Level Estimated
08:04PM 18.3029 109.4123 148° Southeast  Level Estimated
08:05PM 18.3029 109.4123 148° Southeast  Level Estimated
08:06PM 18.3029 109.4123 148° Southeast  Level Estimated
08:07PM 18.3029 109.4123 148° Southeast  Level Estimated
08:08PM 18.3029 109.4123 148° Southeast  Level Estimated
08:09PM 18.3029 109.4123 148° Southeast  Level Estimated
08:10PM 18.3029 109.4123 148° Southeast  Level Estimated
08:11PM 18.3029 109.4123 148° Southeast  Level Estimated
08:12PM 18.3029 109.4123 148° Southeast  Level Estimated
08:13PM 18.3029 109.4123 148° Southeast  Level Estimated
08:14PM 18.3029 109.4123 148° Southeast  Level Estimated
08:15PM 18.3029 109.4123 148° Southeast  Level Estimated
08:16PM 18.3029 109.4123 148° Southeast  Level Estimated